JOPM7: Shoal Creek, Joplin, MO

Data processed at Sat Mar 10 2018 23:36


All information presented herein is the property of the government of the United States of America and may be revised or deleted at any time without prior notice.
Dissemination of this information without the expressed written consent of the Public Affairs Office, Tulsa District U.S. Army Corps of Engineers is strictly prohibited.
These data are gathered electronically and, as presented, have not undergone any form of quality control. These data are not guaranteed to be valid or correct.
Go to home page.
Go to station list.

Downstream station:


Previous Day
Next Day
Current Day
    
SHEF ID:       JOPM7     Shoal Creek above Joplin, MO
STATION TYPE:  

               PRECIP PRECIP(A)     STAGE  RIV-FLOW   VOLTAGE
                   in        in        ft       cfs      volt
              Ccp-Rev   Ccp-Rev   Ccp-Rev   Ccp-Rev   Ccp-Rev
(US/Central)
03/08 00:00      0.00      ----      3.43       754     12.92
03/08 01:00      0.00      ----      3.43       754     12.90
03/08 02:00      0.00      ----      3.42       750     12.88
03/08 03:00      0.00      ----      3.42       750     12.85
03/08 04:00      0.00      ----      3.42       750     12.82
03/08 05:00      0.00      ----      3.42       750     12.82
03/08 06:00      0.00      ----      3.43       754     12.82
03/08 07:00      0.00      ----      3.41       745     12.96
03/08 08:00      0.00      ----      3.40       740     14.37
03/08 09:00      0.00      ----      3.41       745     14.09
03/08 10:00      0.00      ----      3.39       735     14.39
03/08 11:00      0.00      ----      3.39       735     14.45
03/08 12:00      0.00      ----      3.39       735     14.46
03/08 13:00      0.00      ----      3.38       730     14.14
03/08 14:00      0.00      ----      3.38       730     14.23
03/08 15:00      0.00      ----      3.37       725     14.25
03/08 16:00      0.00      ----      3.37       725     14.19
03/08 17:00      0.00      ----      3.37       725     13.99
03/08 18:00      0.00      ----      3.38       730     13.38
03/08 19:00      0.00      ----      3.37       725     13.15
03/08 20:00      0.00      ----      3.37       725     13.08
03/08 21:00      0.00      ----      3.37       725     13.04
03/08 22:00      0.00      ----      3.35       716     13.00
03/08 23:00      0.00      ----      3.35       716     12.97